Portada
METAR-TAF:

METAR-TAF

Aeropuertos :

Hamadán, Irán

latitud: 34-52-05N, longitud: 048-33-08E, altitud: 1757 m

Observación

El informe se hizo hace 30 minutos, a las 00:00 UTC
Viento 4 kt del este-sureste
Temperatura 8°C
Humedad 53%
Presión 1017 hPa
Visibilidad: 5000 m
Polvo extendido

METAR: OIHH 180000Z 11004KT 5000 DU NSC 08/M01 Q1016 A3003

Hora: 05:00 (00:30 UTC)


TAF: falta

Observaciones y pronósticos meteorológicos de más de 4000 aeropuertos (mensajes METAR y TAF).

Los puntos amarillos y rojos representan las estaciones disponibles.

Ponga el ratón en el punto deseado para ver el nombre de la estación.

Haga clic para ver las observaciones y los pronósticos meteorológicos.

Para cambiar el mapa : haga clic en los botones verdes con una cruz de color negro para hacer un zoom, en el botón verde con un guión para alejar o en las flechas verdes para mapas adyacentes.


METAR-TAF: